createdAt,value
2022-12-24T00:00:59.122Z,979.12
2022-12-24T00:01:59.160Z,979.18
2022-12-24T00:02:59.265Z,979.21
2022-12-24T00:03:59.209Z,979.25
2022-12-24T00:05:01.321Z,979.21
2022-12-24T00:05:59.076Z,979.20
2022-12-24T00:06:59.071Z,979.21
2022-12-24T00:07:59.037Z,979.24
2022-12-24T00:08:59.031Z,979.20
2022-12-24T00:09:59.045Z,979.17
2022-12-24T00:10:59.018Z,979.10
2022-12-24T00:11:59.003Z,979.17
2022-12-24T00:12:58.993Z,979.19
2022-12-24T00:13:58.993Z,979.17
2022-12-24T00:14:58.985Z,979.19
2022-12-24T00:15:58.965Z,979.14
2022-12-24T00:16:59.001Z,979.03
2022-12-24T00:17:58.929Z,979.09
2022-12-24T00:18:58.935Z,979.10
2022-12-24T00:19:58.930Z,979.13
2022-12-24T00:20:58.902Z,979.19
2022-12-24T00:21:58.891Z,979.24
2022-12-24T00:22:58.874Z,979.12
2022-12-24T00:23:58.890Z,979.20
2022-12-24T00:24:58.861Z,979.20
2022-12-24T00:25:58.871Z,979.16
2022-12-24T00:26:58.860Z,979.22
2022-12-24T00:27:58.844Z,979.30
2022-12-24T00:28:58.820Z,979.23
2022-12-24T00:29:58.812Z,979.30
2022-12-24T00:30:58.857Z,979.33
2022-12-24T00:31:58.811Z,979.23
2022-12-24T00:32:58.791Z,979.19
2022-12-24T00:33:58.773Z,979.19
2022-12-24T00:34:58.763Z,979.22
2022-12-24T00:35:58.753Z,979.22
2022-12-24T00:36:58.751Z,979.19
2022-12-24T00:37:58.723Z,979.18
2022-12-24T00:38:58.703Z,979.21
2022-12-24T00:39:58.734Z,979.23
2022-12-24T00:40:58.696Z,979.32
2022-12-24T00:41:58.683Z,979.28
2022-12-24T00:42:58.654Z,979.31
2022-12-24T00:43:58.655Z,979.37
2022-12-24T00:44:58.634Z,979.41
2022-12-24T00:45:58.698Z,979.48
2022-12-24T00:46:58.643Z,979.39
2022-12-24T00:47:58.631Z,979.25
2022-12-24T00:48:58.596Z,979.38
2022-12-24T00:49:58.606Z,979.37
2022-12-24T00:50:58.615Z,979.38
2022-12-24T00:51:58.569Z,979.39
2022-12-24T00:52:58.553Z,979.38
2022-12-24T00:53:58.575Z,979.36
2022-12-24T00:54:58.535Z,979.37
2022-12-24T00:55:58.547Z,979.36
2022-12-24T00:56:58.520Z,979.44
2022-12-24T00:57:58.518Z,979.44
2022-12-24T00:58:58.518Z,979.55
2022-12-24T00:59:58.495Z,979.51
2022-12-24T01:00:58.507Z,979.58
2022-12-24T01:01:58.689Z,979.55
2022-12-24T01:02:58.629Z,979.60
2022-12-24T01:03:58.438Z,979.64
2022-12-24T01:04:58.451Z,979.63
2022-12-24T01:05:58.449Z,979.67
2022-12-24T01:06:58.420Z,979.68
2022-12-24T01:07:58.413Z,979.77
2022-12-24T01:08:58.392Z,979.72
2022-12-24T01:09:58.396Z,979.75
2022-12-24T01:10:58.383Z,979.83
2022-12-24T01:11:58.392Z,979.83
2022-12-24T01:12:58.351Z,979.81
2022-12-24T01:13:58.353Z,979.86
2022-12-24T01:14:58.311Z,979.94
2022-12-24T01:15:58.375Z,979.90
2022-12-24T01:16:58.304Z,979.89
2022-12-24T01:17:58.306Z,979.93
2022-12-24T01:18:58.296Z,979.97
2022-12-24T01:19:58.292Z,979.95
2022-12-24T01:20:58.276Z,979.96
2022-12-24T01:21:58.275Z,979.98
2022-12-24T01:22:58.233Z,980.07
2022-12-24T01:23:58.230Z,980.04
2022-12-24T01:24:58.211Z,980.14
2022-12-24T01:25:58.232Z,980.10
2022-12-24T01:26:58.201Z,980.21
2022-12-24T01:27:58.176Z,980.20
2022-12-24T01:28:58.163Z,980.30
2022-12-24T01:29:58.164Z,980.32
2022-12-24T01:30:58.180Z,980.27
2022-12-24T01:31:58.143Z,980.29
2022-12-24T01:32:58.134Z,980.34
2022-12-24T01:33:58.115Z,980.42
2022-12-24T01:34:58.113Z,980.45
2022-12-24T01:35:58.124Z,980.50
2022-12-24T01:36:58.075Z,980.57
2022-12-24T01:37:58.084Z,980.74
2022-12-24T01:38:58.065Z,980.71
2022-12-24T01:39:58.045Z,980.47
2022-12-24T01:40:58.038Z,980.56
2022-12-24T01:41:58.032Z,980.51
2022-12-24T01:42:58.058Z,980.58
2022-12-24T01:43:58.018Z,980.53
2022-12-24T01:44:58.009Z,980.53
2022-12-24T01:45:58.073Z,980.55
2022-12-24T01:46:58.021Z,980.51
2022-12-24T01:47:57.989Z,980.58
2022-12-24T01:48:57.959Z,980.82
2022-12-24T01:49:57.958Z,980.70
2022-12-24T01:50:57.933Z,980.70
2022-12-24T01:51:57.930Z,980.83
2022-12-24T01:52:57.932Z,980.74
2022-12-24T01:53:57.920Z,980.80
2022-12-24T01:54:57.902Z,980.84
2022-12-24T01:55:57.888Z,980.80
2022-12-24T01:56:57.878Z,980.98
2022-12-24T01:57:57.877Z,980.87
2022-12-24T01:58:57.865Z,980.89
2022-12-24T01:59:57.872Z,980.95
2022-12-24T02:00:57.829Z,981.02
2022-12-24T02:01:58.014Z,981.03
2022-12-24T02:02:57.944Z,981.07
2022-12-24T02:03:57.789Z,981.16
2022-12-24T02:04:57.796Z,981.20
2022-12-24T02:05:57.789Z,981.17
2022-12-24T02:06:57.759Z,981.22
2022-12-24T02:07:57.776Z,981.21
2022-12-24T02:08:57.751Z,981.18
2022-12-24T02:09:57.745Z,981.18
2022-12-24T02:10:57.724Z,981.21
2022-12-24T02:11:57.726Z,981.14
2022-12-24T02:12:57.717Z,981.05
2022-12-24T02:13:57.704Z,981.21
2022-12-24T02:14:57.681Z,981.18
2022-12-24T02:15:57.725Z,981.21
2022-12-24T02:16:57.659Z,981.08
2022-12-24T02:17:57.652Z,980.87
2022-12-24T02:18:57.660Z,980.94
2022-12-24T02:19:57.623Z,980.91
2022-12-24T02:20:57.635Z,980.95
2022-12-24T02:21:57.611Z,980.97
2022-12-24T02:22:57.615Z,980.97
2022-12-24T02:23:57.614Z,981.01
2022-12-24T02:24:57.589Z,980.94
2022-12-24T02:25:57.593Z,980.98
2022-12-24T02:26:57.605Z,981.05
2022-12-24T02:27:57.559Z,981.17
2022-12-24T02:28:57.538Z,981.17
2022-12-24T02:29:57.547Z,981.17
2022-12-24T02:30:57.581Z,981.19
2022-12-24T02:31:57.528Z,981.22
2022-12-24T02:32:57.528Z,981.27
2022-12-24T02:33:57.505Z,981.32
2022-12-24T02:34:57.496Z,981.26
2022-12-24T02:35:57.490Z,981.32
2022-12-24T02:36:57.478Z,981.18
2022-12-24T02:37:57.449Z,981.16
2022-12-24T02:38:57.453Z,981.10
2022-12-24T02:39:57.438Z,981.13
2022-12-24T02:40:57.435Z,981.16
2022-12-24T02:41:57.411Z,981.16
2022-12-24T02:42:57.389Z,981.11
2022-12-24T02:43:57.410Z,981.19
2022-12-24T02:44:57.389Z,981.16
2022-12-24T02:45:59.451Z,981.27
2022-12-24T02:46:57.430Z,981.29
2022-12-24T02:47:57.371Z,981.32
2022-12-24T02:48:57.345Z,981.40
2022-12-24T02:49:57.350Z,981.34
2022-12-24T02:50:57.330Z,981.47
2022-12-24T02:51:57.292Z,981.48
2022-12-24T02:52:57.309Z,981.46
2022-12-24T02:53:57.281Z,981.55
2022-12-24T02:54:57.284Z,981.55
2022-12-24T02:55:57.294Z,981.61
2022-12-24T02:56:57.245Z,981.50
2022-12-24T02:57:57.232Z,981.53
2022-12-24T02:58:57.268Z,981.57
2022-12-24T02:59:57.212Z,981.50
2022-12-24T03:00:57.285Z,981.65
2022-12-24T03:01:57.336Z,981.59
2022-12-24T03:02:57.251Z,981.51
2022-12-24T03:03:57.172Z,981.57
2022-12-24T03:04:57.166Z,981.58
2022-12-24T03:05:57.173Z,981.57
2022-12-24T03:06:57.135Z,981.58
2022-12-24T03:07:57.143Z,981.53
2022-12-24T03:08:57.113Z,981.60
2022-12-24T03:09:57.100Z,981.60
2022-12-24T03:10:57.094Z,981.60
2022-12-24T03:11:57.104Z,981.62
2022-12-24T03:12:57.083Z,981.62
2022-12-24T03:13:57.076Z,981.63
2022-12-24T03:14:57.057Z,981.66
2022-12-24T03:15:57.066Z,981.71
2022-12-24T03:16:57.042Z,981.67
2022-12-24T03:17:57.047Z,981.70
2022-12-24T03:18:57.035Z,981.70
2022-12-24T03:19:57.015Z,981.65
2022-12-24T03:20:57.004Z,981.70
2022-12-24T03:21:57.004Z,981.62
2022-12-24T03:22:56.955Z,981.67
2022-12-24T03:23:56.987Z,981.73
2022-12-24T03:24:56.952Z,981.78
2022-12-24T03:25:56.937Z,982.00
2022-12-24T03:26:57.229Z,982.02
2022-12-24T03:27:56.907Z,981.99
2022-12-24T03:28:56.898Z,981.95
2022-12-24T03:29:56.888Z,981.92
2022-12-24T03:30:56.897Z,981.88
2022-12-24T03:31:56.913Z,981.84
2022-12-24T03:32:56.877Z,981.76
2022-12-24T03:33:56.863Z,981.73
2022-12-24T03:34:56.845Z,981.72
2022-12-24T03:35:56.849Z,981.67
2022-12-24T03:36:56.863Z,981.67
2022-12-24T03:37:56.815Z,981.75
2022-12-24T03:38:56.800Z,981.76
2022-12-24T03:39:56.791Z,981.73
2022-12-24T03:40:56.803Z,981.85
2022-12-24T03:41:56.799Z,981.88
2022-12-24T03:42:56.786Z,981.83
2022-12-24T03:43:56.776Z,982.04
2022-12-24T03:44:56.748Z,981.95
2022-12-24T03:45:56.820Z,982.03
2022-12-24T03:46:56.720Z,982.00
2022-12-24T03:47:56.700Z,982.00
2022-12-24T03:48:56.706Z,981.89
2022-12-24T03:49:56.706Z,981.88
2022-12-24T03:50:56.663Z,981.89
2022-12-24T03:51:56.651Z,981.94
2022-12-24T03:52:56.661Z,981.95
2022-12-24T03:53:56.639Z,981.93
2022-12-24T03:54:56.639Z,981.85
2022-12-24T03:55:56.631Z,981.88
2022-12-24T03:56:56.612Z,981.75
2022-12-24T03:57:56.632Z,981.78
2022-12-24T03:58:56.586Z,981.82
2022-12-24T03:59:56.588Z,981.73
2022-12-24T04:00:56.624Z,981.75
2022-12-24T04:01:56.709Z,981.77
2022-12-24T04:02:56.628Z,981.82
2022-12-24T04:03:56.564Z,981.89
2022-12-24T04:04:56.534Z,981.88
2022-12-24T04:05:56.513Z,981.92
2022-12-24T04:06:56.506Z,981.91
2022-12-24T04:07:56.515Z,981.90
2022-12-24T04:08:56.486Z,981.81
2022-12-24T04:09:56.492Z,981.82
2022-12-24T04:10:56.473Z,981.80
2022-12-24T04:11:56.443Z,981.87
2022-12-24T04:12:56.453Z,981.89
2022-12-24T04:13:56.442Z,981.99
2022-12-24T04:14:56.408Z,981.98
2022-12-24T04:15:56.413Z,982.01
2022-12-24T04:16:56.497Z,981.98
2022-12-24T04:17:56.393Z,982.00
2022-12-24T04:18:56.395Z,981.96
2022-12-24T04:19:56.373Z,981.94
2022-12-24T04:20:56.356Z,981.93
2022-12-24T04:21:56.362Z,981.97
2022-12-24T04:22:56.347Z,981.97
2022-12-24T04:23:56.340Z,982.04
2022-12-24T04:24:56.313Z,982.01
2022-12-24T04:25:56.335Z,982.08
2022-12-24T04:26:56.300Z,982.06
2022-12-24T04:27:56.273Z,982.09
2022-12-24T04:28:56.263Z,982.09
2022-12-24T04:29:56.285Z,982.10
2022-12-24T04:30:56.256Z,982.04
2022-12-24T04:31:56.341Z,982.03
2022-12-24T04:32:56.220Z,982.02
2022-12-24T04:33:56.207Z,982.02
2022-12-24T04:34:56.214Z,982.02
2022-12-24T04:35:56.209Z,982.02
2022-12-24T04:36:56.200Z,982.07
2022-12-24T04:37:56.195Z,982.02
2022-12-24T04:38:56.176Z,982.12
2022-12-24T04:39:56.164Z,982.17
2022-12-24T04:40:56.151Z,982.14
2022-12-24T04:41:56.161Z,982.13
2022-12-24T04:42:56.132Z,982.12
2022-12-24T04:43:56.140Z,982.09
2022-12-24T04:44:56.091Z,982.14
2022-12-24T04:45:56.155Z,982.17
2022-12-24T04:46:56.102Z,982.26
2022-12-24T04:47:56.075Z,982.33
2022-12-24T04:48:56.067Z,982.25
2022-12-24T04:49:56.043Z,982.18
2022-12-24T04:50:56.023Z,982.19
2022-12-24T04:51:56.038Z,982.19
2022-12-24T04:52:56.031Z,982.23
2022-12-24T04:53:56.032Z,982.19
2022-12-24T04:54:55.984Z,982.19
2022-12-24T04:55:55.985Z,982.17
2022-12-24T04:56:55.973Z,982.20
2022-12-24T04:57:55.971Z,982.29
2022-12-24T04:58:56.005Z,982.37
2022-12-24T04:59:55.952Z,982.37
2022-12-24T05:00:56.014Z,982.38
2022-12-24T05:01:56.175Z,982.34
2022-12-24T05:02:55.974Z,982.34
2022-12-24T05:03:55.899Z,982.35
2022-12-24T05:04:55.889Z,982.36
2022-12-24T05:06:01.291Z,982.35
2022-12-24T05:06:56.876Z,982.26
2022-12-24T05:07:55.863Z,982.26
2022-12-24T05:08:55.860Z,982.27
2022-12-24T05:09:55.884Z,982.22
2022-12-24T05:10:55.862Z,982.23
2022-12-24T05:11:55.814Z,982.19
2022-12-24T05:12:55.808Z,982.20
2022-12-24T05:13:55.815Z,982.10
2022-12-24T05:14:55.807Z,982.13
2022-12-24T05:15:55.797Z,982.16
2022-12-24T05:16:55.827Z,982.18
2022-12-24T05:17:55.775Z,982.28
2022-12-24T05:18:55.752Z,982.25
2022-12-24T05:19:55.737Z,982.30
2022-12-24T05:20:55.743Z,982.36
2022-12-24T05:21:55.736Z,982.35
2022-12-24T05:22:55.698Z,982.37
2022-12-24T05:23:55.683Z,982.25
2022-12-24T05:24:55.660Z,982.21
2022-12-24T05:25:55.681Z,982.17
2022-12-24T05:26:55.676Z,982.26
2022-12-24T05:27:55.656Z,982.32
2022-12-24T05:28:55.638Z,982.33
2022-12-24T05:29:55.635Z,982.29
2022-12-24T05:30:55.645Z,982.33
2022-12-24T05:31:55.619Z,982.34
2022-12-24T05:32:55.610Z,982.30
2022-12-24T05:33:55.579Z,982.33
2022-12-24T05:34:55.563Z,982.34
2022-12-24T05:35:55.569Z,982.34
2022-12-24T05:36:55.582Z,982.40
2022-12-24T05:37:55.553Z,982.27
2022-12-24T05:38:55.540Z,982.35
2022-12-24T05:39:55.519Z,982.26
2022-12-24T05:40:55.530Z,982.30
2022-12-24T05:41:55.510Z,982.34
2022-12-24T05:42:55.479Z,982.30
2022-12-24T05:43:55.478Z,982.32
2022-12-24T05:44:55.472Z,982.32
2022-12-24T05:45:55.471Z,982.30
2022-12-24T05:46:55.439Z,982.27
2022-12-24T05:47:55.459Z,982.22
2022-12-24T05:48:55.425Z,982.16
2022-12-24T05:49:55.426Z,982.25
2022-12-24T05:50:55.398Z,982.19
2022-12-24T05:51:55.411Z,982.23
2022-12-24T05:52:55.393Z,982.25
2022-12-24T05:53:55.403Z,982.33
2022-12-24T05:54:55.374Z,982.25
2022-12-24T05:55:55.361Z,982.29
2022-12-24T05:56:55.362Z,982.41
2022-12-24T05:57:55.347Z,982.34
2022-12-24T05:58:55.440Z,982.44
2022-12-24T05:59:55.319Z,982.42
2022-12-24T06:00:55.307Z,982.47
2022-12-24T06:01:55.346Z,982.40
2022-12-24T06:02:55.347Z,982.42
2022-12-24T06:03:55.264Z,982.41
2022-12-24T06:04:55.264Z,982.40
2022-12-24T06:05:55.235Z,982.43
2022-12-24T06:06:55.215Z,982.35
2022-12-24T06:07:55.238Z,982.39
2022-12-24T06:08:55.223Z,982.42
2022-12-24T06:09:55.205Z,982.44
2022-12-24T06:10:55.205Z,982.49
2022-12-24T06:11:55.208Z,982.53
2022-12-24T06:12:55.181Z,982.55
2022-12-24T06:13:55.148Z,982.56
2022-12-24T06:14:55.146Z,982.58
2022-12-24T06:15:55.233Z,982.61
2022-12-24T06:16:55.117Z,982.58
2022-12-24T06:17:55.111Z,982.61
2022-12-24T06:18:55.164Z,982.57
2022-12-24T06:19:55.088Z,982.53
2022-12-24T06:20:55.097Z,982.56
2022-12-24T06:21:55.098Z,982.57
2022-12-24T06:22:55.055Z,982.61
2022-12-24T06:23:55.059Z,982.58
2022-12-24T06:24:55.052Z,982.62
2022-12-24T06:25:55.021Z,982.62
2022-12-24T06:26:55.025Z,982.65
2022-12-24T06:27:55.007Z,982.69
2022-12-24T06:28:54.998Z,982.71
2022-12-24T06:29:54.971Z,982.66
2022-12-24T06:31:02.141Z,982.72
2022-12-24T06:31:55.997Z,982.72
2022-12-24T06:32:54.942Z,982.72
2022-12-24T06:33:54.959Z,982.75
2022-12-24T06:34:55.010Z,982.74
2022-12-24T06:35:54.942Z,982.75
2022-12-24T06:36:54.919Z,982.81
2022-12-24T06:37:54.901Z,982.81
2022-12-24T06:38:54.883Z,982.75
2022-12-24T06:39:54.878Z,982.81
2022-12-24T06:40:54.879Z,982.85
2022-12-24T06:41:54.880Z,982.83
2022-12-24T06:42:54.850Z,982.83
2022-12-24T06:43:54.858Z,982.86
2022-12-24T06:44:54.815Z,982.86
2022-12-24T06:45:54.813Z,982.86
2022-12-24T06:46:54.865Z,982.84
2022-12-24T06:47:54.787Z,982.96
2022-12-24T06:48:54.776Z,982.99
2022-12-24T06:49:54.793Z,982.99
2022-12-24T06:50:54.744Z,983.09
2022-12-24T06:51:54.745Z,983.10
2022-12-24T06:52:54.758Z,983.10
2022-12-24T06:53:54.735Z,983.19
2022-12-24T06:54:54.708Z,983.25
2022-12-24T06:55:54.712Z,983.26
2022-12-24T06:56:57.129Z,983.21
2022-12-24T06:57:54.673Z,983.22
2022-12-24T06:58:58.772Z,983.12
2022-12-24T06:59:55.659Z,983.21
2022-12-24T07:00:55.360Z,983.19
2022-12-24T07:01:54.745Z,983.21
2022-12-24T07:02:54.884Z,983.16
2022-12-24T07:03:54.643Z,983.21
2022-12-24T07:04:55.107Z,983.14
2022-12-24T07:05:54.633Z,983.28
2022-12-24T07:06:55.385Z,983.23
2022-12-24T07:07:54.597Z,983.22
2022-12-24T07:08:54.604Z,983.18
2022-12-24T07:09:54.567Z,983.12
2022-12-24T07:10:54.857Z,983.10
2022-12-24T07:11:54.537Z,983.12
2022-12-24T07:12:54.539Z,983.19
2022-12-24T07:13:54.527Z,983.35
2022-12-24T07:14:54.537Z,983.33
2022-12-24T07:15:54.546Z,983.41
2022-12-24T07:16:58.963Z,983.36
2022-12-24T07:17:55.568Z,983.39
2022-12-24T07:18:54.457Z,983.38
2022-12-24T07:19:54.459Z,983.42
2022-12-24T07:20:54.437Z,983.39
2022-12-24T07:21:54.435Z,983.40
2022-12-24T07:22:54.423Z,983.39
2022-12-24T07:23:54.438Z,983.43
2022-12-24T07:24:54.403Z,983.43
2022-12-24T07:25:54.402Z,983.42
2022-12-24T07:26:54.370Z,983.45
2022-12-24T07:27:54.369Z,983.51
2022-12-24T07:28:54.370Z,983.56
2022-12-24T07:29:54.342Z,983.57
2022-12-24T07:30:54.469Z,983.61
2022-12-24T07:31:54.403Z,983.59
2022-12-24T07:32:54.331Z,983.63
2022-12-24T07:33:54.291Z,983.77
2022-12-24T07:34:54.315Z,983.78
2022-12-24T07:35:56.075Z,983.69
2022-12-24T07:36:54.261Z,983.68
2022-12-24T07:37:54.252Z,983.64
2022-12-24T07:38:54.270Z,983.60
2022-12-24T07:39:54.244Z,983.63
2022-12-24T07:40:54.226Z,983.63
2022-12-24T07:41:54.212Z,983.65
2022-12-24T07:42:54.210Z,983.66
2022-12-24T07:43:54.220Z,983.68
2022-12-24T07:44:54.175Z,983.72
2022-12-24T07:45:54.181Z,983.69
2022-12-24T07:46:54.221Z,983.61
2022-12-24T07:47:54.146Z,983.66
2022-12-24T07:48:54.173Z,983.76
2022-12-24T07:49:54.135Z,983.72
2022-12-24T07:50:54.159Z,983.71
2022-12-24T07:51:54.093Z,983.77
2022-12-24T07:52:54.092Z,983.77
2022-12-24T07:53:54.089Z,983.74
2022-12-24T07:54:54.083Z,983.80
2022-12-24T07:55:54.062Z,983.76
2022-12-24T07:56:54.054Z,983.75
2022-12-24T07:57:54.062Z,983.76
2022-12-24T07:58:54.043Z,983.72
2022-12-24T07:59:54.008Z,983.74
2022-12-24T08:00:54.012Z,983.68
2022-12-24T08:01:54.155Z,983.79
2022-12-24T08:02:54.125Z,983.72
2022-12-24T08:03:54.094Z,983.72
2022-12-24T08:04:53.974Z,983.76
2022-12-24T08:05:53.962Z,983.71
2022-12-24T08:06:53.971Z,983.74
2022-12-24T08:07:53.943Z,983.74
2022-12-24T08:08:53.926Z,983.82
2022-12-24T08:09:53.915Z,983.76
2022-12-24T08:10:53.910Z,983.88
2022-12-24T08:11:53.895Z,983.77
2022-12-24T08:12:53.897Z,983.76
2022-12-24T08:13:53.867Z,983.85
2022-12-24T08:14:53.865Z,983.86
2022-12-24T08:15:53.901Z,983.88
2022-12-24T08:16:53.992Z,983.89
2022-12-24T08:17:53.850Z,983.89
2022-12-24T08:18:53.828Z,983.88
2022-12-24T08:19:53.798Z,983.89
2022-12-24T08:20:53.821Z,983.99
2022-12-24T08:21:53.784Z,983.92
2022-12-24T08:22:53.779Z,983.97
2022-12-24T08:23:53.787Z,983.95
2022-12-24T08:24:53.776Z,983.91
2022-12-24T08:25:53.747Z,983.96
2022-12-24T08:26:53.733Z,983.99
2022-12-24T08:27:53.739Z,984.02
2022-12-24T08:28:53.716Z,983.97
2022-12-24T08:29:53.692Z,983.93
2022-12-24T08:30:53.701Z,983.98
2022-12-24T08:31:53.715Z,984.07
2022-12-24T08:32:53.669Z,984.06
2022-12-24T08:33:53.691Z,984.11
2022-12-24T08:34:53.662Z,984.11
2022-12-24T08:35:53.641Z,984.10
2022-12-24T08:36:53.620Z,984.16
2022-12-24T08:37:53.631Z,984.14
2022-12-24T08:38:53.622Z,984.12
2022-12-24T08:39:53.596Z,984.13
2022-12-24T08:40:53.596Z,984.08
2022-12-24T08:41:53.560Z,984.12
2022-12-24T08:42:53.652Z,984.16
2022-12-24T08:43:53.561Z,984.18
2022-12-24T08:44:53.565Z,984.22
2022-12-24T08:45:53.533Z,984.19
2022-12-24T08:46:53.529Z,984.27
2022-12-24T08:47:53.502Z,984.21
2022-12-24T08:48:53.512Z,984.25
2022-12-24T08:49:53.493Z,984.22
2022-12-24T08:50:53.472Z,984.22
2022-12-24T08:51:53.500Z,984.20
2022-12-24T08:52:53.453Z,984.25
2022-12-24T08:53:54.206Z,984.29
2022-12-24T08:54:53.453Z,984.26
2022-12-24T08:55:56.404Z,984.33
2022-12-24T08:56:53.414Z,984.36
2022-12-24T08:57:54.086Z,984.36
2022-12-24T08:58:53.394Z,984.32
2022-12-24T08:59:54.375Z,984.31
2022-12-24T09:00:53.427Z,984.33
2022-12-24T09:01:53.756Z,984.27
2022-12-24T09:02:53.423Z,984.30
2022-12-24T09:03:54.044Z,984.30
2022-12-24T09:04:53.325Z,984.29
2022-12-24T09:05:54.144Z,984.29
2022-12-24T09:06:53.315Z,984.34
2022-12-24T09:07:53.351Z,984.34
2022-12-24T09:08:53.291Z,984.36
2022-12-24T09:09:53.524Z,984.46
2022-12-24T09:10:53.298Z,984.44
2022-12-24T09:11:53.269Z,984.50
2022-12-24T09:12:53.253Z,984.48
2022-12-24T09:13:53.233Z,984.51
2022-12-24T09:14:55.011Z,984.49
2022-12-24T09:15:53.208Z,984.52
2022-12-24T09:16:53.265Z,984.52
2022-12-24T09:17:53.213Z,984.52
2022-12-24T09:18:53.173Z,984.54
2022-12-24T09:19:53.196Z,984.64
2022-12-24T09:20:57.211Z,984.60
2022-12-24T09:21:53.135Z,984.62
2022-12-24T09:22:53.142Z,984.63
2022-12-24T09:23:53.127Z,984.62
2022-12-24T09:24:53.124Z,984.63
2022-12-24T09:25:53.135Z,984.68
2022-12-24T09:26:57.694Z,984.62
2022-12-24T09:27:54.075Z,984.58
2022-12-24T09:28:53.083Z,984.62
2022-12-24T09:29:53.066Z,984.65
2022-12-24T09:30:53.062Z,984.58
2022-12-24T09:31:53.105Z,984.67
2022-12-24T09:32:53.017Z,984.71
2022-12-24T09:33:53.047Z,984.67
2022-12-24T09:34:53.004Z,984.70
2022-12-24T09:35:53.004Z,984.75
2022-12-24T09:36:52.991Z,984.73
2022-12-24T09:37:52.984Z,984.72
2022-12-24T09:38:52.960Z,984.77
2022-12-24T09:39:52.973Z,984.74
2022-12-24T09:40:52.959Z,984.72
2022-12-24T09:41:52.944Z,984.73
2022-12-24T09:42:52.938Z,984.73
2022-12-24T09:43:52.902Z,984.83
2022-12-24T09:44:52.902Z,984.78
2022-12-24T09:45:52.962Z,984.78
2022-12-24T09:46:52.903Z,984.81
2022-12-24T09:47:52.852Z,984.78
2022-12-24T09:48:52.883Z,984.81
2022-12-24T09:49:52.852Z,984.69
2022-12-24T09:50:52.864Z,984.69
2022-12-24T09:51:52.814Z,984.64
2022-12-24T09:52:52.809Z,984.61
2022-12-24T09:53:52.813Z,984.68
2022-12-24T09:54:52.786Z,984.67
2022-12-24T09:55:52.795Z,984.63
2022-12-24T09:56:52.763Z,984.65
2022-12-24T09:57:52.760Z,984.63
2022-12-24T09:58:52.744Z,984.65
2022-12-24T09:59:52.743Z,984.69
2022-12-24T10:00:52.735Z,984.65
2022-12-24T10:01:52.853Z,984.66
2022-12-24T10:02:52.922Z,984.69
2022-12-24T10:03:52.738Z,984.76
2022-12-24T10:04:52.714Z,984.73
2022-12-24T10:05:52.692Z,984.71
2022-12-24T10:06:52.656Z,984.73
2022-12-24T10:07:52.662Z,984.70
2022-12-24T10:08:52.666Z,984.70
2022-12-24T10:09:52.645Z,984.61
2022-12-24T10:10:52.662Z,984.60
2022-12-24T10:11:52.614Z,984.64
2022-12-24T10:12:52.613Z,984.70
2022-12-24T10:13:52.591Z,984.67
2022-12-24T10:14:52.576Z,984.65
2022-12-24T10:15:52.648Z,984.70
2022-12-24T10:16:52.639Z,984.69
2022-12-24T10:17:52.560Z,984.71
2022-12-24T10:18:52.533Z,984.75
2022-12-24T10:19:52.550Z,984.69
2022-12-24T10:20:52.519Z,984.76
2022-12-24T10:21:52.529Z,984.68
2022-12-24T10:22:52.522Z,984.75
2022-12-24T10:23:52.505Z,984.77
2022-12-24T10:24:52.468Z,984.80
2022-12-24T10:25:52.487Z,984.71
2022-12-24T10:26:52.458Z,984.82
2022-12-24T10:27:52.438Z,984.80
2022-12-24T10:28:52.446Z,984.78
2022-12-24T10:29:52.443Z,984.84
2022-12-24T10:30:52.411Z,984.84
2022-12-24T10:31:52.419Z,984.85
2022-12-24T10:32:52.414Z,984.83
2022-12-24T10:33:52.370Z,984.89
2022-12-24T10:34:52.385Z,984.89
2022-12-24T10:35:52.375Z,984.95
2022-12-24T10:36:52.351Z,984.94
2022-12-24T10:37:52.328Z,984.94
2022-12-24T10:38:52.335Z,984.86
2022-12-24T10:39:52.301Z,984.88
2022-12-24T10:40:52.340Z,984.84
2022-12-24T10:41:52.305Z,984.85
2022-12-24T10:42:52.301Z,984.83
2022-12-24T10:43:52.263Z,984.84
2022-12-24T10:44:52.253Z,984.79
2022-12-24T10:45:52.285Z,984.79
2022-12-24T10:46:52.257Z,984.80
2022-12-24T10:47:52.241Z,984.81
2022-12-24T10:48:52.244Z,984.79
2022-12-24T10:49:52.205Z,984.85
2022-12-24T10:50:52.200Z,984.88
2022-12-24T10:51:52.215Z,984.88
2022-12-24T10:52:53.193Z,984.88
2022-12-24T10:53:52.186Z,984.95
2022-12-24T10:54:53.294Z,984.96
2022-12-24T10:55:52.157Z,984.93
2022-12-24T10:56:53.163Z,984.97
2022-12-24T10:57:52.132Z,984.99
2022-12-24T10:58:52.185Z,985.00
2022-12-24T10:59:52.122Z,984.96
2022-12-24T11:00:52.091Z,984.98
2022-12-24T11:01:52.144Z,984.91
2022-12-24T11:02:52.377Z,984.95
2022-12-24T11:03:52.093Z,984.95
2022-12-24T11:04:52.073Z,984.88
2022-12-24T11:05:52.035Z,984.82
2022-12-24T11:06:52.036Z,984.80
2022-12-24T11:07:52.044Z,984.81
2022-12-24T11:08:52.020Z,984.79
2022-12-24T11:09:51.992Z,984.87
2022-12-24T11:10:51.994Z,984.86
2022-12-24T11:11:51.968Z,984.74
2022-12-24T11:13:12.755Z,984.75
2022-12-24T11:13:52.960Z,984.76
2022-12-24T11:14:51.957Z,984.75
2022-12-24T11:15:52.005Z,984.81
2022-12-24T11:16:51.919Z,984.82
2022-12-24T11:17:51.944Z,984.82
2022-12-24T11:18:52.376Z,984.81
2022-12-24T11:19:51.886Z,984.84
2022-12-24T11:20:51.888Z,984.86
2022-12-24T11:21:51.906Z,984.83
2022-12-24T11:22:51.851Z,984.86
2022-12-24T11:23:51.847Z,984.83
2022-12-24T11:24:51.844Z,984.93
2022-12-24T11:25:51.815Z,984.81
2022-12-24T11:26:51.850Z,984.88
2022-12-24T11:27:51.937Z,984.92
2022-12-24T11:28:51.820Z,984.92
2022-12-24T11:29:51.772Z,984.89
2022-12-24T11:30:51.844Z,984.98
2022-12-24T11:31:51.769Z,984.93
2022-12-24T11:32:51.836Z,984.87
2022-12-24T11:33:51.739Z,984.83
2022-12-24T11:34:51.739Z,984.88
2022-12-24T11:35:51.701Z,984.86
2022-12-24T11:36:51.706Z,984.92
2022-12-24T11:37:51.690Z,984.92
2022-12-24T11:38:51.703Z,984.90
2022-12-24T11:39:51.711Z,984.93
2022-12-24T11:40:51.649Z,984.88
2022-12-24T11:41:51.660Z,984.81
2022-12-24T11:42:51.637Z,984.89
2022-12-24T11:43:51.642Z,984.83
2022-12-24T11:44:51.601Z,984.85
2022-12-24T11:45:51.641Z,984.87
2022-12-24T11:46:51.643Z,984.77
2022-12-24T11:47:51.586Z,984.78
2022-12-24T11:48:51.570Z,984.80
2022-12-24T11:49:51.553Z,984.81
2022-12-24T11:50:51.572Z,984.80
2022-12-24T11:51:51.546Z,984.81
2022-12-24T11:52:51.540Z,984.81
2022-12-24T11:53:51.530Z,984.84
2022-12-24T11:54:51.527Z,984.88
2022-12-24T11:55:51.513Z,984.81
2022-12-24T11:56:51.480Z,984.95
2022-12-24T11:57:51.489Z,984.90
2022-12-24T11:58:51.492Z,984.89
2022-12-24T11:59:51.466Z,984.90
2022-12-24T12:00:51.435Z,984.86
2022-12-24T12:01:51.484Z,984.83
2022-12-24T12:02:51.483Z,984.73
2022-12-24T12:03:51.496Z,984.84
2022-12-24T12:04:51.402Z,984.80
2022-12-24T12:05:51.394Z,984.82
2022-12-24T12:06:51.376Z,984.85
2022-12-24T12:07:51.398Z,984.79
2022-12-24T12:08:51.364Z,984.79
2022-12-24T12:09:51.341Z,984.75
2022-12-24T12:10:51.329Z,984.79
2022-12-24T12:11:51.353Z,984.76
2022-12-24T12:12:51.329Z,984.70
2022-12-24T12:13:51.296Z,984.67
2022-12-24T12:14:51.302Z,984.69
2022-12-24T12:15:51.375Z,984.70
2022-12-24T12:16:51.266Z,984.72
2022-12-24T12:17:51.295Z,984.71
2022-12-24T12:18:51.253Z,984.67
2022-12-24T12:19:51.255Z,984.71
2022-12-24T12:20:51.236Z,984.75
2022-12-24T12:21:51.218Z,984.74
2022-12-24T12:22:51.219Z,984.80
2022-12-24T12:23:51.483Z,984.80
2022-12-24T12:24:51.208Z,984.81
2022-12-24T12:25:51.215Z,984.76
2022-12-24T12:26:51.167Z,984.83
2022-12-24T12:27:51.187Z,984.81
2022-12-24T12:28:51.131Z,984.79